createdAt,value
2018-03-18T00:00:07.087Z,52.60
2018-03-18T00:01:07.113Z,53.70
2018-03-18T00:02:07.138Z,52.30
2018-03-18T00:03:07.162Z,55.10
2018-03-18T00:04:07.187Z,52.80
2018-03-18T00:05:07.212Z,51.60
2018-03-18T00:06:07.237Z,56.80
2018-03-18T00:07:07.262Z,54.80
2018-03-18T00:08:07.287Z,53.50
2018-03-18T00:09:07.320Z,50.60
2018-03-18T00:10:07.336Z,48.50
2018-03-18T00:11:07.361Z,49.50
2018-03-18T00:12:07.388Z,51.60
2018-03-18T00:13:07.411Z,55.50
2018-03-18T00:14:07.436Z,55.10
2018-03-18T00:15:07.460Z,52.90
2018-03-18T00:16:07.486Z,57.80
2018-03-18T00:17:07.510Z,52.00
2018-03-18T00:18:07.535Z,57.40
2018-03-18T00:19:07.559Z,54.60
2018-03-18T00:20:07.590Z,53.20
2018-03-18T00:21:07.610Z,54.60
2018-03-18T00:22:07.635Z,54.60
2018-03-18T00:23:07.660Z,53.90
2018-03-18T00:24:07.684Z,56.30
2018-03-18T00:25:07.709Z,56.60
2018-03-18T00:26:07.734Z,56.20
2018-03-18T00:27:07.762Z,55.40
2018-03-18T00:28:07.783Z,55.90
2018-03-18T00:29:07.808Z,56.90
2018-03-18T00:30:07.832Z,56.00
2018-03-18T00:31:07.859Z,58.50
2018-03-18T00:32:07.884Z,58.10
2018-03-18T00:33:07.908Z,54.60
2018-03-18T00:34:07.933Z,47.50
2018-03-18T00:35:07.958Z,44.40
2018-03-18T00:36:07.983Z,47.70
2018-03-18T00:37:08.008Z,48.30
2018-03-18T00:38:08.033Z,47.50
2018-03-18T00:39:08.058Z,46.20
2018-03-18T00:40:08.085Z,46.70
2018-03-18T00:41:08.115Z,49.40
2018-03-18T00:42:08.132Z,45.00
2018-03-18T00:43:08.158Z,50.00
2018-03-18T00:44:08.180Z,44.20
2018-03-18T00:45:08.207Z,43.30
2018-03-18T00:46:08.235Z,46.00
2018-03-18T00:47:08.260Z,43.50
2018-03-18T00:48:08.283Z,43.20
2018-03-18T00:49:08.306Z,44.30
2018-03-18T00:50:08.331Z,48.80
2018-03-18T00:51:08.366Z,50.40
2018-03-18T00:52:08.380Z,48.90
2018-03-18T00:53:08.405Z,49.00
2018-03-18T00:54:08.444Z,47.30
2018-03-18T00:55:08.456Z,46.70
2018-03-18T00:56:08.480Z,48.60
2018-03-18T00:57:08.504Z,51.50
2018-03-18T00:58:08.528Z,48.10
2018-03-18T00:59:08.554Z,52.80
2018-03-18T01:00:08.578Z,52.20
2018-03-18T01:01:08.604Z,51.50
2018-03-18T01:02:08.629Z,52.30
2018-03-18T01:03:08.654Z,55.10
2018-03-18T01:04:08.677Z,61.20
2018-03-18T01:05:08.701Z,49.10
2018-03-18T01:06:08.728Z,48.60
2018-03-18T01:07:08.753Z,51.00
2018-03-18T01:08:08.778Z,54.20
2018-03-18T01:09:08.802Z,51.50
2018-03-18T01:10:08.827Z,50.60
2018-03-18T01:11:08.852Z,52.80
2018-03-18T01:12:08.875Z,54.90
2018-03-18T01:13:08.901Z,49.70
2018-03-18T01:14:08.925Z,55.30
2018-03-18T01:15:08.950Z,45.40
2018-03-18T01:16:08.976Z,45.40
2018-03-18T01:17:09.000Z,48.00
2018-03-18T01:18:09.025Z,43.90
2018-03-18T01:19:09.050Z,51.30
2018-03-18T01:20:09.074Z,45.50
2018-03-18T01:21:09.097Z,45.20
2018-03-18T01:22:09.122Z,42.00
2018-03-18T01:23:09.148Z,42.40
2018-03-18T01:24:09.173Z,47.30
2018-03-18T01:25:09.203Z,50.20
2018-03-18T01:26:09.225Z,48.00
2018-03-18T01:27:09.249Z,46.80
2018-03-18T01:28:09.271Z,49.40
2018-03-18T01:29:09.297Z,51.40
2018-03-18T01:30:09.321Z,43.40
2018-03-18T01:31:09.347Z,46.20
2018-03-18T01:32:09.372Z,40.60
2018-03-18T01:33:09.396Z,44.60
2018-03-18T01:34:09.422Z,44.20
2018-03-18T01:35:09.445Z,48.10
2018-03-18T01:36:09.470Z,44.10
2018-03-18T01:37:09.494Z,40.80
2018-03-18T01:38:09.520Z,45.60
2018-03-18T01:39:09.545Z,44.90
2018-03-18T01:40:09.570Z,46.30
2018-03-18T01:41:09.594Z,46.20
2018-03-18T01:42:09.618Z,45.00
2018-03-18T01:43:09.704Z,44.70
2018-03-18T01:44:09.668Z,43.30
2018-03-18T01:45:09.694Z,44.10
2018-03-18T01:46:09.719Z,46.70
2018-03-18T01:47:09.744Z,41.50
2018-03-18T01:48:09.767Z,42.90
2018-03-18T01:49:09.791Z,45.10
2018-03-18T01:50:09.817Z,39.80
2018-03-18T01:51:09.842Z,43.40
2018-03-18T01:52:09.866Z,44.20
2018-03-18T01:53:09.891Z,42.40
2018-03-18T01:54:09.918Z,45.40
2018-03-18T01:55:09.941Z,41.60
2018-03-18T01:56:09.973Z,48.60
2018-03-18T01:57:09.999Z,45.90
2018-03-18T01:58:10.015Z,45.80
2018-03-18T01:59:10.040Z,42.50
2018-03-18T02:00:10.066Z,42.30
2018-03-18T02:01:10.089Z,43.60
2018-03-18T02:02:10.116Z,44.50
2018-03-18T02:03:10.141Z,42.00
2018-03-18T02:04:10.166Z,46.40
2018-03-18T02:05:10.188Z,45.00
2018-03-18T02:06:10.212Z,45.60
2018-03-18T02:07:10.239Z,44.20
2018-03-18T02:08:10.262Z,44.90
2018-03-18T02:09:10.288Z,44.50
2018-03-18T02:10:10.314Z,44.20
2018-03-18T02:11:10.338Z,43.80
2018-03-18T02:12:10.364Z,45.70
2018-03-18T02:13:10.388Z,47.00
2018-03-18T02:14:10.412Z,47.30
2018-03-18T02:15:10.435Z,46.00
2018-03-18T02:16:10.461Z,47.90
2018-03-18T02:17:10.486Z,45.60
2018-03-18T02:18:10.510Z,44.10
2018-03-18T02:19:10.535Z,44.30
2018-03-18T02:20:10.559Z,51.90
2018-03-18T02:21:10.583Z,51.60
2018-03-18T02:22:10.612Z,52.80
2018-03-18T02:23:10.633Z,56.00
2018-03-18T02:24:10.658Z,53.30
2018-03-18T02:25:10.683Z,53.80
2018-03-18T02:26:10.708Z,55.00
2018-03-18T02:27:10.733Z,51.80
2018-03-18T02:28:10.757Z,52.00
2018-03-18T02:29:10.781Z,55.40
2018-03-18T02:30:10.807Z,53.40
2018-03-18T02:31:10.833Z,53.40
2018-03-18T02:32:10.856Z,54.50
2018-03-18T02:33:10.880Z,56.90
2018-03-18T02:34:10.904Z,59.70
2018-03-18T02:35:10.937Z,65.30
2018-03-18T02:36:10.956Z,62.80
2018-03-18T02:37:10.981Z,60.70
2018-03-18T02:38:11.007Z,58.30
2018-03-18T02:39:11.032Z,59.70
2018-03-18T02:40:11.055Z,58.40
2018-03-18T02:41:11.081Z,55.90
2018-03-18T02:42:11.103Z,58.50
2018-03-18T02:43:11.129Z,57.10
2018-03-18T02:44:11.155Z,58.50
2018-03-18T02:45:11.178Z,56.90
2018-03-18T02:46:11.204Z,54.80
2018-03-18T02:47:11.228Z,60.40
2018-03-18T02:48:11.253Z,61.00
2018-03-18T02:49:11.278Z,64.60
2018-03-18T02:50:11.318Z,59.20
2018-03-18T02:51:11.329Z,61.70
2018-03-18T02:52:11.352Z,56.90
2018-03-18T02:53:11.377Z,57.00
2018-03-18T02:54:11.402Z,54.20
2018-03-18T02:55:11.426Z,53.70
2018-03-18T02:56:11.450Z,61.80
2018-03-18T02:57:11.475Z,62.20
2018-03-18T02:58:11.499Z,55.00
2018-03-18T02:59:11.526Z,54.00
2018-03-18T03:00:11.549Z,51.90
2018-03-18T03:01:11.574Z,51.80
2018-03-18T03:02:11.605Z,51.30
2018-03-18T03:03:11.622Z,51.70
2018-03-18T03:04:11.647Z,53.50
2018-03-18T03:05:11.671Z,54.80
2018-03-18T03:06:11.696Z,58.70
2018-03-18T03:07:11.720Z,54.20
2018-03-18T03:08:11.747Z,51.50
2018-03-18T03:09:11.770Z,53.30
2018-03-18T03:10:11.794Z,53.00
2018-03-18T03:11:11.818Z,51.80
2018-03-18T03:12:11.842Z,47.90
2018-03-18T03:13:11.867Z,52.10
2018-03-18T03:14:11.893Z,53.60
2018-03-18T03:15:11.917Z,57.30
2018-03-18T03:16:11.941Z,59.30
2018-03-18T03:17:11.966Z,52.50
2018-03-18T03:18:11.990Z,48.60
2018-03-18T03:19:12.015Z,52.70
2018-03-18T03:20:12.038Z,53.00
2018-03-18T03:21:12.066Z,53.20
2018-03-18T03:22:12.087Z,46.80
2018-03-18T03:23:12.112Z,51.20
2018-03-18T03:24:12.135Z,53.70
2018-03-18T03:25:12.168Z,55.20
2018-03-18T03:26:12.185Z,49.20
2018-03-18T03:27:12.210Z,52.10
2018-03-18T03:28:12.233Z,47.60
2018-03-18T03:29:12.259Z,49.10
2018-03-18T03:30:12.284Z,41.10
2018-03-18T03:31:12.318Z,44.10
2018-03-18T03:32:12.332Z,41.60
2018-03-18T03:33:12.357Z,48.00
2018-03-18T03:34:12.389Z,48.00
2018-03-18T03:35:12.405Z,48.20
2018-03-18T03:36:12.428Z,45.40
2018-03-18T03:37:12.453Z,47.10
2018-03-18T03:38:12.485Z,47.90
2018-03-18T03:39:12.502Z,47.40
2018-03-18T03:40:12.526Z,46.80
2018-03-18T03:41:12.549Z,52.70
2018-03-18T03:42:12.574Z,51.10
2018-03-18T03:43:12.611Z,53.20
2018-03-18T03:44:12.622Z,49.50
2018-03-18T03:45:12.647Z,52.00
2018-03-18T03:46:12.672Z,55.70
2018-03-18T03:47:12.700Z,49.60
2018-03-18T03:48:12.720Z,55.50
2018-03-18T03:49:12.744Z,49.30
2018-03-18T03:50:12.769Z,53.30
2018-03-18T03:51:12.795Z,49.80
2018-03-18T03:52:12.816Z,46.70
2018-03-18T03:53:12.841Z,47.40
2018-03-18T03:54:12.865Z,45.70
2018-03-18T03:55:12.890Z,46.20
2018-03-18T03:56:12.914Z,45.50
2018-03-18T03:57:12.939Z,47.50
2018-03-18T03:58:12.964Z,48.00
2018-03-18T03:59:12.989Z,48.70
2018-03-18T04:00:13.011Z,44.70
2018-03-18T04:01:13.037Z,46.40
2018-03-18T04:02:13.061Z,45.80
2018-03-18T04:03:13.085Z,47.60
2018-03-18T04:04:13.109Z,47.10
2018-03-18T04:05:13.133Z,46.60
2018-03-18T04:06:13.158Z,44.80
2018-03-18T04:07:13.182Z,46.60
2018-03-18T04:08:13.209Z,47.40
2018-03-18T04:09:13.230Z,51.20
2018-03-18T04:10:13.255Z,47.30
2018-03-18T04:11:13.281Z,47.60
2018-03-18T04:12:13.304Z,47.10
2018-03-18T04:13:13.327Z,45.80
2018-03-18T04:14:13.351Z,44.50
2018-03-18T04:15:13.378Z,44.90
2018-03-18T04:16:13.401Z,45.20
2018-03-18T04:17:13.428Z,48.00
2018-03-18T04:18:13.453Z,46.70
2018-03-18T04:19:13.475Z,53.80
2018-03-18T04:20:13.498Z,50.10
2018-03-18T04:21:13.523Z,48.30
2018-03-18T04:22:13.547Z,42.20
2018-03-18T04:23:13.573Z,49.30
2018-03-18T04:24:13.598Z,46.00
2018-03-18T04:25:13.619Z,46.60
2018-03-18T04:26:13.645Z,45.00
2018-03-18T04:27:13.669Z,44.10
2018-03-18T04:28:13.697Z,40.80
2018-03-18T04:29:13.718Z,42.80
2018-03-18T04:30:13.742Z,43.70
2018-03-18T04:31:13.766Z,42.90
2018-03-18T04:32:13.790Z,48.10
2018-03-18T04:33:13.815Z,47.10
2018-03-18T04:34:13.840Z,47.20
2018-03-18T04:35:13.865Z,49.00
2018-03-18T04:36:13.888Z,48.90
2018-03-18T04:37:13.913Z,50.00
2018-03-18T04:38:13.936Z,45.40
2018-03-18T04:39:13.962Z,48.10
2018-03-18T04:40:13.985Z,46.20
2018-03-18T04:41:14.010Z,44.80
2018-03-18T04:42:14.036Z,45.80
2018-03-18T04:43:14.060Z,43.50
2018-03-18T04:44:14.083Z,43.60
2018-03-18T04:45:14.108Z,45.50
2018-03-18T04:46:14.131Z,44.10
2018-03-18T04:47:14.157Z,45.20
2018-03-18T04:48:14.182Z,52.90
2018-03-18T04:49:14.206Z,51.00
2018-03-18T04:50:14.230Z,50.70
2018-03-18T04:51:14.256Z,52.50
2018-03-18T04:52:14.341Z,48.80
2018-03-18T04:53:14.303Z,49.10
2018-03-18T04:54:14.327Z,50.50
2018-03-18T04:55:14.353Z,47.60
2018-03-18T04:56:14.378Z,46.90
2018-03-18T04:57:14.402Z,44.90
2018-03-18T04:58:14.425Z,45.50
2018-03-18T04:59:14.455Z,43.60
2018-03-18T05:00:14.474Z,48.20
2018-03-18T05:01:14.500Z,45.70
2018-03-18T05:02:14.523Z,41.60
2018-03-18T05:03:14.551Z,44.70
2018-03-18T05:04:14.571Z,43.90
2018-03-18T05:05:14.596Z,47.00
2018-03-18T05:06:14.624Z,47.60
2018-03-18T05:07:14.645Z,41.90
2018-03-18T05:08:14.668Z,39.80
2018-03-18T05:09:14.691Z,49.10
2018-03-18T05:10:14.717Z,44.40
2018-03-18T05:11:14.745Z,44.90
2018-03-18T05:12:14.765Z,42.80
2018-03-18T05:13:14.789Z,46.70
2018-03-18T05:14:14.814Z,43.70
2018-03-18T05:15:14.839Z,44.80
2018-03-18T05:16:14.862Z,43.00
2018-03-18T05:17:14.886Z,43.10
2018-03-18T05:18:14.911Z,41.40
2018-03-18T05:19:14.935Z,42.10
2018-03-18T05:20:14.957Z,42.90
2018-03-18T05:21:14.982Z,44.20
2018-03-18T05:22:15.007Z,41.20
2018-03-18T05:23:15.038Z,43.70
2018-03-18T05:24:15.054Z,44.30
2018-03-18T05:25:15.080Z,40.40
2018-03-18T05:26:15.103Z,40.70
2018-03-18T05:27:15.130Z,47.80
2018-03-18T05:28:15.151Z,46.00
2018-03-18T05:29:15.175Z,45.60
2018-03-18T05:30:15.200Z,42.90
2018-03-18T05:31:15.225Z,41.40
2018-03-18T05:32:15.248Z,41.70
2018-03-18T05:33:15.272Z,42.30
2018-03-18T05:34:15.302Z,38.10
2018-03-18T05:35:15.322Z,41.00
2018-03-18T05:36:15.345Z,43.50
2018-03-18T05:37:15.369Z,48.70
2018-03-18T05:38:15.394Z,48.20
2018-03-18T05:39:15.421Z,43.80
2018-03-18T05:40:15.441Z,47.90
2018-03-18T05:41:15.466Z,42.80
2018-03-18T05:42:15.491Z,42.30
2018-03-18T05:43:15.516Z,43.10
2018-03-18T05:44:15.538Z,46.20
2018-03-18T05:45:15.562Z,44.60
2018-03-18T05:46:15.588Z,42.20
2018-03-18T05:47:15.613Z,45.70
2018-03-18T05:48:15.636Z,50.10
2018-03-18T05:49:15.661Z,49.20
2018-03-18T05:50:15.685Z,45.80
2018-03-18T05:51:15.710Z,40.60
2018-03-18T05:52:15.733Z,38.80
2018-03-18T05:53:15.758Z,39.20
2018-03-18T05:54:15.782Z,40.50
2018-03-18T05:55:15.806Z,44.00
2018-03-18T05:56:15.839Z,40.50
2018-03-18T05:57:15.855Z,44.80
2018-03-18T05:58:15.887Z,42.80
2018-03-18T05:59:15.904Z,41.40
2018-03-18T06:00:15.927Z,39.30
2018-03-18T06:01:15.985Z,44.90
2018-03-18T06:02:15.977Z,41.90
2018-03-18T06:03:16.001Z,44.70
2018-03-18T06:04:16.024Z,47.80
2018-03-18T06:05:16.049Z,46.10
2018-03-18T06:06:16.073Z,47.10
2018-03-18T06:07:16.097Z,41.90
2018-03-18T06:08:16.121Z,42.60
2018-03-18T06:09:16.146Z,44.90
2018-03-18T06:10:16.171Z,42.60
2018-03-18T06:11:16.218Z,46.40
2018-03-18T06:12:16.218Z,44.90
2018-03-18T06:13:16.243Z,42.70
2018-03-18T06:14:16.268Z,43.60
2018-03-18T06:15:16.298Z,43.30
2018-03-18T06:16:16.315Z,41.40
2018-03-18T06:17:16.339Z,38.90
2018-03-18T06:18:16.363Z,45.00
2018-03-18T06:19:16.389Z,50.50
2018-03-18T06:20:16.413Z,46.30
2018-03-18T06:21:16.439Z,42.50
2018-03-18T06:22:16.459Z,44.60
2018-03-18T06:23:16.486Z,44.70
2018-03-18T06:24:16.507Z,45.00
2018-03-18T06:25:16.532Z,44.40
2018-03-18T06:26:16.558Z,48.30
2018-03-18T06:27:16.584Z,48.60
2018-03-18T06:28:16.607Z,47.10
2018-03-18T06:29:16.630Z,46.50
2018-03-18T06:30:16.655Z,48.90
2018-03-18T06:31:16.678Z,45.90
2018-03-18T06:32:16.702Z,46.80
2018-03-18T06:33:16.728Z,43.30
2018-03-18T06:34:16.751Z,43.40
2018-03-18T06:35:16.779Z,41.60
2018-03-18T06:36:16.803Z,49.00
2018-03-18T06:37:16.824Z,42.80
2018-03-18T06:38:16.849Z,42.70
2018-03-18T06:39:16.876Z,47.90
2018-03-18T06:40:16.903Z,45.70
2018-03-18T06:41:16.921Z,49.40
2018-03-18T06:42:16.947Z,45.70
2018-03-18T06:43:16.972Z,51.90
2018-03-18T06:44:16.996Z,50.20
2018-03-18T06:45:17.021Z,47.40
2018-03-18T06:46:17.045Z,48.00
2018-03-18T06:47:17.071Z,52.50
2018-03-18T06:48:17.094Z,50.50
2018-03-18T06:49:17.120Z,50.40
2018-03-18T06:50:17.144Z,54.40
2018-03-18T06:51:17.168Z,61.70
2018-03-18T06:52:17.192Z,70.50
2018-03-18T06:53:17.218Z,60.00
2018-03-18T06:54:17.243Z,59.30
2018-03-18T06:55:17.267Z,55.90
2018-03-18T06:56:17.295Z,53.60
2018-03-18T06:57:17.317Z,55.60
2018-03-18T06:58:17.341Z,58.40
2018-03-18T06:59:17.367Z,62.60
2018-03-18T07:00:17.391Z,61.50
2018-03-18T07:01:17.415Z,65.00
2018-03-18T07:02:17.441Z,75.40
2018-03-18T07:03:17.466Z,72.60
2018-03-18T07:04:17.491Z,77.30
2018-03-18T07:05:17.519Z,66.40
2018-03-18T07:06:17.540Z,58.20
2018-03-18T07:07:17.567Z,61.90
2018-03-18T07:08:17.589Z,63.30
2018-03-18T07:09:17.614Z,62.10
2018-03-18T07:10:17.640Z,58.10
2018-03-18T07:11:17.665Z,60.90
2018-03-18T07:12:17.689Z,62.40
2018-03-18T07:13:17.714Z,60.60
2018-03-18T07:14:17.740Z,56.90
2018-03-18T07:15:17.766Z,62.20
2018-03-18T07:16:17.790Z,57.60
2018-03-18T07:17:17.815Z,61.70
2018-03-18T07:18:17.840Z,56.50
2018-03-18T07:19:17.865Z,53.90
2018-03-18T07:20:17.889Z,53.40
2018-03-18T07:21:17.916Z,55.60
2018-03-18T07:22:17.941Z,60.90
2018-03-18T07:23:17.966Z,73.10
2018-03-18T07:24:17.992Z,59.00
2018-03-18T07:25:18.018Z,72.10
2018-03-18T07:26:18.042Z,66.90
2018-03-18T07:27:18.065Z,59.20
2018-03-18T07:28:18.091Z,52.40
2018-03-18T07:29:18.117Z,51.30
2018-03-18T07:30:18.142Z,50.10
2018-03-18T07:31:18.168Z,50.80
2018-03-18T07:32:18.193Z,46.30
2018-03-18T07:33:18.217Z,52.20
2018-03-18T07:34:18.245Z,48.90
2018-03-18T07:35:18.271Z,51.40
2018-03-18T07:36:18.293Z,51.90
2018-03-18T07:37:18.320Z,48.40
2018-03-18T07:38:18.349Z,47.50
2018-03-18T07:39:18.440Z,50.30
2018-03-18T07:40:18.396Z,50.60
2018-03-18T07:41:18.421Z,49.70
2018-03-18T07:42:18.447Z,53.30
2018-03-18T07:43:18.471Z,48.90
2018-03-18T07:44:18.496Z,52.20
2018-03-18T07:45:18.522Z,53.30
2018-03-18T07:46:18.547Z,54.70
2018-03-18T07:47:18.598Z,52.20
2018-03-18T07:48:18.596Z,55.70
2018-03-18T07:49:18.623Z,58.20
2018-03-18T07:50:18.649Z,62.50
2018-03-18T07:51:18.674Z,54.10
2018-03-18T07:52:18.699Z,69.30
2018-03-18T07:53:18.728Z,61.20
2018-03-18T07:54:18.751Z,52.50
2018-03-18T07:55:18.779Z,53.20
2018-03-18T07:56:18.815Z,51.40
2018-03-18T07:57:18.827Z,49.10
2018-03-18T07:58:18.853Z,55.10
2018-03-18T07:59:18.879Z,52.90
2018-03-18T08:00:18.905Z,58.90
2018-03-18T08:01:18.931Z,56.30
2018-03-18T08:02:18.955Z,51.70
2018-03-18T08:03:18.982Z,51.70
2018-03-18T08:04:19.006Z,61.60
2018-03-18T08:05:19.034Z,58.60
2018-03-18T08:06:19.081Z,60.80
2018-03-18T08:07:19.085Z,58.40
2018-03-18T08:08:19.117Z,56.30
2018-03-18T08:09:19.135Z,53.80
2018-03-18T08:10:19.162Z,56.40
2018-03-18T08:11:19.188Z,55.60
2018-03-18T08:12:19.213Z,54.40
2018-03-18T08:13:19.238Z,52.30
2018-03-18T08:14:19.265Z,49.60
2018-03-18T08:15:19.292Z,45.90
2018-03-18T08:16:19.316Z,44.80
2018-03-18T08:17:19.343Z,62.60
2018-03-18T08:18:19.369Z,62.00
2018-03-18T08:19:19.427Z,55.50
2018-03-18T08:20:19.448Z,53.30
2018-03-18T08:21:19.448Z,48.90
2018-03-18T08:22:19.474Z,52.80
2018-03-18T08:23:19.592Z,62.10
2018-03-18T08:24:19.538Z,73.20
2018-03-18T08:25:19.574Z,61.80
2018-03-18T08:26:19.699Z,63.60
2018-03-18T08:27:19.605Z,59.80
2018-03-18T08:28:19.650Z,44.80
2018-03-18T08:29:19.658Z,44.50
2018-03-18T08:30:19.700Z,45.90
2018-03-18T08:31:19.710Z,54.10
2018-03-18T08:32:19.735Z,63.60
2018-03-18T08:33:19.787Z,53.30
2018-03-18T08:34:19.826Z,54.20
2018-03-18T08:35:19.814Z,50.80
2018-03-18T08:36:19.840Z,51.10
2018-03-18T08:37:19.867Z,48.70
2018-03-18T08:38:19.892Z,45.40
2018-03-18T08:39:19.919Z,46.60
2018-03-18T08:40:19.952Z,45.10
2018-03-18T08:41:19.975Z,48.10
2018-03-18T08:42:19.998Z,44.90
2018-03-18T08:43:20.025Z,47.50
2018-03-18T08:44:20.050Z,46.10
2018-03-18T08:45:20.076Z,49.00
2018-03-18T08:46:20.102Z,45.40
2018-03-18T08:47:20.128Z,45.80
2018-03-18T08:48:20.153Z,48.20
2018-03-18T08:49:20.180Z,47.50
2018-03-18T08:50:20.207Z,52.50
2018-03-18T08:51:20.234Z,51.50
2018-03-18T08:52:20.311Z,52.40
2018-03-18T08:53:20.285Z,55.00
2018-03-18T08:54:20.312Z,61.10
2018-03-18T08:55:20.338Z,57.10
2018-03-18T08:56:20.375Z,49.40
2018-03-18T08:57:20.390Z,42.80
2018-03-18T08:58:20.416Z,44.80
2018-03-18T08:59:20.444Z,45.20
2018-03-18T09:00:20.469Z,43.40
2018-03-18T09:01:20.508Z,44.40
2018-03-18T09:02:20.524Z,43.50
2018-03-18T09:03:20.549Z,42.70
2018-03-18T09:04:20.578Z,38.20
2018-03-18T09:05:20.603Z,44.70
2018-03-18T09:06:20.629Z,45.90
2018-03-18T09:07:20.656Z,43.60
2018-03-18T09:08:20.683Z,37.60
2018-03-18T09:09:20.713Z,40.70
2018-03-18T09:10:20.737Z,42.10
2018-03-18T09:11:20.764Z,46.90
2018-03-18T09:12:20.789Z,40.40
2018-03-18T09:13:20.818Z,45.40
2018-03-18T09:14:20.845Z,42.70
2018-03-18T09:15:20.873Z,44.50
2018-03-18T09:16:20.899Z,45.60
2018-03-18T09:17:20.927Z,47.00
2018-03-18T09:18:20.953Z,43.30
2018-03-18T09:19:20.982Z,42.00
2018-03-18T09:20:21.008Z,39.40
2018-03-18T09:21:21.036Z,40.70
2018-03-18T09:22:21.070Z,39.60
2018-03-18T09:23:21.091Z,44.00
2018-03-18T09:24:21.117Z,43.90
2018-03-18T09:25:21.145Z,41.30
2018-03-18T09:26:21.174Z,41.60
2018-03-18T09:27:21.203Z,41.30
2018-03-18T09:28:21.227Z,39.60
2018-03-18T09:29:21.256Z,40.90
2018-03-18T09:30:21.336Z,42.20
2018-03-18T09:31:21.310Z,40.40
2018-03-18T09:32:21.338Z,38.90
2018-03-18T09:33:21.365Z,40.90
2018-03-18T09:34:21.392Z,40.80
2018-03-18T09:35:21.421Z,41.40
2018-03-18T09:36:21.447Z,41.20
2018-03-18T09:37:21.515Z,42.90
2018-03-18T09:38:21.503Z,40.30
2018-03-18T09:39:21.530Z,43.10
2018-03-18T09:40:21.558Z,41.50
2018-03-18T09:41:21.585Z,42.80
2018-03-18T09:42:21.612Z,38.00
2018-03-18T09:43:21.640Z,36.00
2018-03-18T09:44:21.666Z,44.00
2018-03-18T09:45:21.695Z,43.70
2018-03-18T09:46:21.722Z,45.80
2018-03-18T09:47:21.750Z,47.40
2018-03-18T09:48:21.780Z,40.90
2018-03-18T09:49:21.805Z,42.60
2018-03-18T09:50:21.832Z,45.30
2018-03-18T09:51:21.859Z,45.30
2018-03-18T09:52:21.885Z,39.80
2018-03-18T09:53:21.914Z,40.40
2018-03-18T09:54:21.941Z,43.20
2018-03-18T09:55:21.969Z,47.00
2018-03-18T09:56:22.025Z,42.80
2018-03-18T09:57:22.028Z,44.00
2018-03-18T09:58:22.055Z,43.60
2018-03-18T09:59:22.079Z,40.80
2018-03-18T10:00:22.106Z,43.50
2018-03-18T10:01:22.135Z,41.10
2018-03-18T10:02:22.162Z,40.50
2018-03-18T10:03:22.195Z,40.30
2018-03-18T10:04:22.217Z,39.40
2018-03-18T10:05:22.246Z,37.10
2018-03-18T10:06:22.274Z,41.80
2018-03-18T10:07:22.302Z,45.00
2018-03-18T10:08:22.362Z,41.60
2018-03-18T10:09:22.358Z,42.30
2018-03-18T10:10:22.385Z,41.10
2018-03-18T10:11:22.414Z,41.80
2018-03-18T10:12:22.441Z,39.40
2018-03-18T10:13:22.470Z,41.40
2018-03-18T10:14:22.498Z,40.20
2018-03-18T10:15:22.526Z,41.20
2018-03-18T10:16:22.552Z,39.90
2018-03-18T10:17:22.582Z,45.80
2018-03-18T10:18:22.610Z,42.80
2018-03-18T10:19:22.638Z,40.20
2018-03-18T10:20:22.816Z,35.80
2018-03-18T10:21:22.695Z,36.70
2018-03-18T10:22:22.723Z,39.70
2018-03-18T10:23:22.751Z,36.90
2018-03-18T10:24:22.778Z,36.50
2018-03-18T10:25:22.806Z,39.90
2018-03-18T10:26:22.835Z,37.10
2018-03-18T10:27:22.863Z,38.70
2018-03-18T10:28:22.892Z,41.10
2018-03-18T10:29:22.918Z,35.70
2018-03-18T10:30:22.947Z,39.00
2018-03-18T10:31:22.975Z,40.00
2018-03-18T10:32:23.004Z,36.00
2018-03-18T10:33:23.032Z,40.10
2018-03-18T10:34:23.060Z,42.50
2018-03-18T10:35:23.089Z,40.90
2018-03-18T10:36:23.118Z,37.50
2018-03-18T10:37:23.144Z,45.50
2018-03-18T10:38:23.173Z,37.00
2018-03-18T10:39:23.203Z,37.50
2018-03-18T10:40:23.230Z,41.50
2018-03-18T10:41:23.257Z,38.70
2018-03-18T10:42:23.286Z,39.50
2018-03-18T10:43:23.313Z,36.90
2018-03-18T10:44:23.342Z,37.20
2018-03-18T10:45:23.370Z,38.60
2018-03-18T10:46:23.400Z,38.20
2018-03-18T10:47:23.431Z,37.40
2018-03-18T10:48:23.455Z,37.80
2018-03-18T10:49:23.484Z,39.70
2018-03-18T10:50:23.512Z,42.10
2018-03-18T10:51:23.541Z,38.10
2018-03-18T10:52:23.568Z,42.90
2018-03-18T10:53:23.596Z,40.00
2018-03-18T10:54:23.634Z,35.30
2018-03-18T10:55:23.656Z,36.60
2018-03-18T10:56:23.683Z,37.90
2018-03-18T10:57:23.712Z,36.40
2018-03-18T10:58:23.740Z,36.70
2018-03-18T10:59:23.770Z,36.70
2018-03-18T11:00:23.797Z,38.30
2018-03-18T11:01:23.829Z,37.80
2018-03-18T11:02:23.856Z,38.70
2018-03-18T11:03:23.886Z,40.50
2018-03-18T11:04:23.912Z,38.40
2018-03-18T11:05:23.941Z,42.30
2018-03-18T11:06:23.971Z,37.90
2018-03-18T11:07:24.002Z,38.10
2018-03-18T11:08:24.030Z,37.30
2018-03-18T11:09:24.066Z,38.00
2018-03-18T11:10:24.085Z,39.70
2018-03-18T11:11:24.115Z,34.30
2018-03-18T11:12:24.143Z,39.70
2018-03-18T11:13:24.173Z,39.50
2018-03-18T11:14:24.202Z,39.10
2018-03-18T11:15:24.231Z,39.20
2018-03-18T11:16:24.259Z,39.10
2018-03-18T11:17:24.289Z,37.10
2018-03-18T11:18:24.317Z,41.80
2018-03-18T11:19:24.347Z,39.50
2018-03-18T11:20:24.376Z,33.80
2018-03-18T11:21:24.405Z,34.10
2018-03-18T11:22:24.434Z,35.70
2018-03-18T11:23:24.462Z,36.70
2018-03-18T11:24:24.491Z,34.90
2018-03-18T11:25:24.520Z,39.00
2018-03-18T11:26:24.550Z,35.90
2018-03-18T11:27:24.580Z,37.20
2018-03-18T11:28:24.608Z,41.30
2018-03-18T11:29:24.637Z,39.70
2018-03-18T11:30:24.667Z,41.40
2018-03-18T11:31:24.696Z,42.30
2018-03-18T11:32:24.724Z,41.50
2018-03-18T11:33:24.754Z,41.20
2018-03-18T11:34:24.786Z,40.60
2018-03-18T11:35:24.816Z,46.10
2018-03-18T11:36:24.842Z,39.60
2018-03-18T11:37:24.872Z,42.40
2018-03-18T11:38:24.900Z,36.90
2018-03-18T11:39:24.930Z,39.00
2018-03-18T11:40:24.959Z,37.80
2018-03-18T11:41:25.051Z,41.30
2018-03-18T11:42:25.019Z,39.30
2018-03-18T11:43:25.049Z,39.80
2018-03-18T11:44:25.078Z,37.70
2018-03-18T11:45:25.106Z,38.00
2018-03-18T11:46:25.137Z,38.30
2018-03-18T11:47:25.167Z,38.50
2018-03-18T11:48:25.199Z,42.90
2018-03-18T11:49:25.252Z,42.90
2018-03-18T11:50:25.257Z,37.80
2018-03-18T11:51:25.285Z,38.40
2018-03-18T11:52:25.313Z,41.00
2018-03-18T11:53:25.343Z,39.40
2018-03-18T11:54:25.408Z,38.00
2018-03-18T11:55:25.405Z,36.30
2018-03-18T11:56:25.433Z,40.40
2018-03-18T11:57:25.467Z,35.40
2018-03-18T11:58:25.493Z,35.20
2018-03-18T11:59:25.531Z,40.50
2018-03-18T12:00:25.551Z,38.10
2018-03-18T12:01:25.582Z,39.10
2018-03-18T12:02:25.617Z,40.10
2018-03-18T12:03:25.641Z,39.70
2018-03-18T12:04:25.670Z,39.50
2018-03-18T12:05:25.700Z,36.40
2018-03-18T12:06:25.733Z,38.50
2018-03-18T12:07:25.761Z,37.00
2018-03-18T12:08:25.788Z,34.60
2018-03-18T12:09:25.820Z,36.60
2018-03-18T12:10:25.848Z,38.80
2018-03-18T12:11:25.877Z,37.90
2018-03-18T12:12:25.906Z,40.10
2018-03-18T12:13:25.935Z,37.10
2018-03-18T12:14:25.965Z,41.60
2018-03-18T12:15:25.996Z,42.10
2018-03-18T12:16:26.024Z,37.70
2018-03-18T12:17:26.054Z,36.50
2018-03-18T12:18:26.084Z,39.80
2018-03-18T12:19:26.124Z,33.90
2018-03-18T12:20:26.144Z,37.10
2018-03-18T12:21:26.173Z,38.00
2018-03-18T12:22:26.203Z,39.50
2018-03-18T12:23:26.233Z,36.70
2018-03-18T12:24:26.262Z,33.00
2018-03-18T12:25:26.290Z,37.00
2018-03-18T12:26:26.324Z,35.40
2018-03-18T12:27:26.350Z,37.00
2018-03-18T12:28:26.379Z,35.00
2018-03-18T12:29:26.408Z,35.90
2018-03-18T12:30:26.451Z,37.40
2018-03-18T12:31:26.468Z,38.40
2018-03-18T12:32:26.498Z,37.90
2018-03-18T12:33:26.526Z,42.10
2018-03-18T12:34:26.557Z,40.40
2018-03-18T12:35:26.587Z,38.40
2018-03-18T12:36:26.620Z,36.50
2018-03-18T12:37:26.646Z,36.70
2018-03-18T12:38:26.678Z,37.90
2018-03-18T12:39:26.705Z,37.60
2018-03-18T12:40:26.734Z,36.20
2018-03-18T12:41:26.764Z,39.50
2018-03-18T12:42:26.794Z,41.00
2018-03-18T12:43:26.824Z,36.00
2018-03-18T12:44:26.852Z,36.80
2018-03-18T12:45:26.882Z,40.00
2018-03-18T12:46:26.911Z,35.20
2018-03-18T12:47:26.945Z,35.20
2018-03-18T12:48:26.969Z,34.80
2018-03-18T12:49:26.999Z,35.70
2018-03-18T12:50:27.028Z,35.10
2018-03-18T12:51:27.059Z,40.80
2018-03-18T12:52:27.086Z,34.50